Time;durP1;ratioP1;P1;durP2;ratioP2;P2;SDS_P1;SDS_P2;PMS_P1;PMS_P2;Temp;Humidity;BMP_temperature;BMP_pressure;BME280_temperature;BME280_humidity;BME280_pressure;Samples;Min_cycle;Max_cycle;Signal;HPM_P1;HPM_P2
2024/01/21 00:00:01;;;;;;;14.52;5.15;;;-0.60;99.90;;;;;;12563478;28;20398;-35
2024/01/21 00:06:03;;;;;;;13.20;3.95;;;-0.70;99.90;;;;;;12556431;28;20056;-36
2024/01/21 00:12:06;;;;;;;10.32;4.10;;;-0.80;99.90;;;;;;12559389;28;20049;-36
2024/01/21 00:18:07;;;;;;;8.88;3.95;;;-0.80;99.90;;;;;;12546903;28;20061;-36
2024/01/21 00:24:09;;;;;;;8.30;3.72;;;-0.80;99.90;;;;;;12560733;28;20111;-35
2024/01/21 00:30:11;;;;;;;9.38;4.10;;;-0.80;99.90;;;;;;12554253;28;20083;-36
2024/01/21 00:36:13;;;;;;;10.43;4.25;;;-0.90;99.90;;;;;;12539494;28;20052;-36
2024/01/21 00:42:15;;;;;;;9.75;4.55;;;-0.90;99.90;;;;;;12550180;28;20049;-36
2024/01/21 00:48:17;;;;;;;11.95;4.57;;;-0.90;99.90;;;;;;12575464;28;20178;-36
2024/01/21 00:54:19;;;;;;;12.80;5.68;;;-0.90;99.90;;;;;;12539479;28;20051;-36
2024/01/21 01:00:25;;;;;;;9.38;4.25;;;-1.00;99.90;;;;;;12563139;28;20477;-35
2024/01/21 01:06:27;;;;;;;10.20;3.97;;;-1.00;99.90;;;;;;12566567;28;20079;-36
2024/01/21 01:12:29;;;;;;;10.98;4.72;;;-1.10;99.90;;;;;;12537312;28;20170;-35
2024/01/21 01:18:31;;;;;;;11.30;5.05;;;-1.10;99.90;;;;;;12548506;28;20048;-36
2024/01/21 01:24:33;;;;;;;12.52;4.32;;;-1.20;99.90;;;;;;12546023;28;20056;-36
2024/01/21 01:30:36;;;;;;;13.75;5.18;;;-1.20;99.90;;;;;;12575549;28;20044;-36
2024/01/21 01:36:39;;;;;;;12.30;4.43;;;-1.10;99.90;;;;;;12520101;28;20421;-36
2024/01/21 01:42:41;;;;;;;9.52;4.20;;;-1.00;99.90;;;;;;12519065;28;20070;-36
2024/01/21 01:48:44;;;;;;;11.55;4.40;;;-1.00;99.90;;;;;;12557308;28;20054;-34
2024/01/21 01:54:48;;;;;;;8.60;4.13;;;-0.90;99.90;;;;;;12572053;28;20083;-36
2024/01/21 02:00:51;;;;;;;8.40;3.40;;;-0.80;99.90;;;;;;12560960;28;20056;-35
2024/01/21 02:06:53;;;;;;;9.82;4.00;;;-0.60;99.90;;;;;;12576300;28;20044;-36
2024/01/21 02:12:55;;;;;;;7.25;3.63;;;-0.50;99.90;;;;;;12542270;28;20447;-36
2024/01/21 02:18:58;;;;;;;7.85;3.05;;;-0.50;99.90;;;;;;12570792;28;20076;-36
2024/01/21 02:25:00;;;;;;;6.57;3.17;;;-0.40;99.90;;;;;;12553314;28;20052;-35
2024/01/21 02:31:02;;;;;;;7.28;3.15;;;-0.20;99.90;;;;;;12545722;28;20083;-36
2024/01/21 02:37:04;;;;;;;6.40;3.00;;;-0.10;99.90;;;;;;12559615;28;20140;-36
2024/01/21 02:43:07;;;;;;;7.60;3.38;;;-0.20;99.90;;;;;;12560592;28;20048;-36
2024/01/21 02:49:09;;;;;;;6.97;3.15;;;-0.20;99.90;;;;;;12585618;28;20056;-36
2024/01/21 02:55:11;;;;;;;7.25;3.45;;;-0.20;99.90;;;;;;12585648;28;20076;-36
2024/01/21 03:01:13;;;;;;;9.70;3.88;;;-0.30;99.90;;;;;;12568225;28;20049;-35
2024/01/21 03:07:15;;;;;;;9.82;4.00;;;-0.50;99.90;;;;;;12581812;28;20045;-36
2024/01/21 03:13:17;;;;;;;10.00;4.32;;;-0.60;99.90;;;;;;12579770;28;20063;-36
2024/01/21 03:19:19;;;;;;;8.30;4.03;;;-0.70;99.90;;;;;;12577507;28;20574;-35
2024/01/21 03:25:21;;;;;;;9.45;3.90;;;-0.60;99.90;;;;;;12572605;28;20432;-36
2024/01/21 03:31:23;;;;;;;10.25;3.92;;;-0.60;99.90;;;;;;12562949;28;20087;-35
2024/01/21 03:37:24;;;;;;;9.25;4.40;;;-0.60;99.90;;;;;;12537485;28;20418;-35
2024/01/21 03:43:26;;;;;;;7.28;3.67;;;-0.50;99.90;;;;;;12559426;28;20182;-35
2024/01/21 03:49:29;;;;;;;10.18;3.72;;;-0.50;99.90;;;;;;12547849;28;20511;-36
2024/01/21 03:55:31;;;;;;;7.82;3.42;;;-0.50;99.90;;;;;;12548360;28;20041;-35
2024/01/21 04:01:33;;;;;;;10.77;3.42;;;-0.30;99.90;;;;;;12565244;28;20060;-35
2024/01/21 04:07:35;;;;;;;11.40;3.60;;;-0.40;99.90;;;;;;12579755;28;20139;-35
2024/01/21 04:13:37;;;;;;;7.82;3.40;;;-0.30;99.90;;;;;;12583803;28;20056;-36
2024/01/21 04:19:39;;;;;;;7.65;3.35;;;-0.30;99.90;;;;;;12526479;28;20056;-35
2024/01/21 04:25:41;;;;;;;7.22;2.95;;;-0.30;99.90;;;;;;12483326;28;20073;-35
2024/01/21 04:31:45;;;;;;;6.68;3.10;;;-0.20;99.90;;;;;;12514853;28;20075;-35
2024/01/21 04:37:49;;;;;;;7.55;3.55;;;-0.20;99.90;;;;;;12520588;28;20044;-36
2024/01/21 04:43:51;;;;;;;7.38;3.05;;;-0.20;99.90;;;;;;12527438;28;20444;-35
2024/01/21 04:49:52;;;;;;;7.10;3.22;;;-0.30;99.90;;;;;;12528705;28;20128;-35
2024/01/21 04:55:54;;;;;;;7.55;3.20;;;-0.30;99.90;;;;;;12504711;28;20053;-36
2024/01/21 05:01:56;;;;;;;6.45;3.13;;;-0.20;99.90;;;;;;12500628;28;20049;-36
2024/01/21 05:07:58;;;;;;;8.48;3.40;;;-0.20;99.90;;;;;;12511599;28;20049;-35
2024/01/21 05:14:00;;;;;;;6.80;2.50;;;-0.20;99.90;;;;;;12511234;28;20049;-36
2024/01/21 05:20:03;;;;;;;8.13;3.35;;;0.00;99.90;;;;;;12526853;28;20067;-35
2024/01/21 05:26:05;;;;;;;6.30;2.65;;;0.00;99.90;;;;;;12555103;28;20053;-35
2024/01/21 05:32:06;;;;;;;5.95;2.13;;;0.10;99.90;;;;;;12552251;28;20053;-36
2024/01/21 05:38:08;;;;;;;6.13;3.13;;;0.10;99.90;;;;;;12531175;28;20505;-36
2024/01/21 05:44:10;;;;;;;7.25;2.90;;;0.10;99.90;;;;;;12556620;28;20123;-35
2024/01/21 05:50:12;;;;;;;6.85;2.55;;;0.30;99.90;;;;;;12558891;28;20052;-35
2024/01/21 05:56:18;;;;;;;5.55;2.63;;;0.20;99.90;;;;;;12543194;28;20052;-35
2024/01/21 06:02:19;;;;;;;6.68;2.40;;;0.20;99.90;;;;;;12542542;28;20052;-35
2024/01/21 06:08:22;;;;;;;5.13;2.22;;;0.30;99.90;;;;;;12554886;28;20044;-35
2024/01/21 06:14:24;;;;;;;6.40;2.92;;;0.20;99.90;;;;;;12552303;28;20045;-35
2024/01/21 06:20:26;;;;;;;5.70;2.75;;;0.20;99.90;;;;;;12551306;28;20409;-36
2024/01/21 06:26:28;;;;;;;7.55;2.70;;;0.20;99.90;;;;;;12555146;28;20057;-35
2024/01/21 06:32:30;;;;;;;5.90;2.42;;;0.20;99.90;;;;;;12524261;28;20069;-36
2024/01/21 06:38:32;;;;;;;7.32;2.90;;;0.40;99.90;;;;;;12558818;28;20489;-35
2024/01/21 06:44:35;;;;;;;6.18;2.78;;;0.40;99.90;;;;;;12572037;28;20496;-36
2024/01/21 06:50:37;;;;;;;8.40;3.05;;;0.40;99.90;;;;;;12581073;28;20041;-36
2024/01/21 06:56:39;;;;;;;5.00;2.50;;;0.30;99.90;;;;;;12566952;28;20056;-36
2024/01/21 07:02:41;;;;;;;7.03;2.80;;;0.40;99.90;;;;;;12545108;28;20079;-36
2024/01/21 07:08:43;;;;;;;9.10;3.25;;;0.40;99.90;;;;;;12552537;28;20091;-36
2024/01/21 07:14:44;;;;;;;8.75;2.65;;;0.40;99.90;;;;;;12549749;28;20516;-36
2024/01/21 07:20:46;;;;;;;7.07;3.42;;;0.30;99.90;;;;;;12563753;28;20088;-35
2024/01/21 07:26:48;;;;;;;5.38;2.88;;;0.20;99.90;;;;;;12510933;28;20049;-36
2024/01/21 07:32:50;;;;;;;5.90;2.80;;;0.20;99.90;;;;;;12515783;28;20441;-36
2024/01/21 07:38:56;;;;;;;6.38;2.88;;;0.30;99.90;;;;;;12487285;28;20057;-35
2024/01/21 07:44:58;;;;;;;8.45;2.80;;;0.40;99.90;;;;;;12491363;28;20209;-36
2024/01/21 07:51:00;;;;;;;7.75;2.75;;;0.40;99.90;;;;;;12502450;28;20140;-35
2024/01/21 07:57:02;;;;;;;6.63;2.78;;;0.40;99.90;;;;;;12497133;28;20077;-36
2024/01/21 08:03:05;;;;;;;6.72;2.88;;;0.40;99.90;;;;;;12492625;28;20049;-36
2024/01/21 08:09:08;;;;;;;6.40;2.70;;;0.40;99.90;;;;;;12499035;28;20049;-35
2024/01/21 08:15:10;;;;;;;6.05;2.95;;;0.50;99.90;;;;;;12491272;28;20045;-36
2024/01/21 08:21:12;;;;;;;9.23;2.78;;;0.40;99.90;;;;;;12524420;28;20055;-36
2024/01/21 08:27:14;;;;;;;5.68;2.47;;;0.40;99.90;;;;;;12538494;28;20083;-36
2024/01/21 08:33:19;;;;;;;8.02;2.50;;;0.60;99.90;;;;;;12547985;28;20071;-36
2024/01/21 08:39:21;;;;;;;6.18;2.50;;;0.80;99.90;;;;;;12563722;28;20048;-36
2024/01/21 08:45:24;;;;;;;6.72;2.88;;;1.10;99.90;;;;;;12565409;28;21799;-35
2024/01/21 08:51:26;;;;;;;4.57;2.10;;;1.30;99.90;;;;;;12545460;28;20393;-35
2024/01/21 08:57:28;;;;;;;4.78;1.98;;;1.50;99.90;;;;;;12546789;28;20057;-36
2024/01/21 09:03:30;;;;;;;4.15;1.90;;;1.60;99.90;;;;;;12568433;28;20045;-36
2024/01/21 09:09:33;;;;;;;4.47;1.70;;;1.90;99.90;;;;;;12549642;28;20444;-36
2024/01/21 09:15:35;;;;;;;4.75;2.13;;;1.90;99.90;;;;;;12558126;28;20480;-36
2024/01/21 09:21:37;;;;;;;6.88;2.20;;;2.00;99.90;;;;;;12538465;28;20509;-36
2024/01/21 09:27:39;;;;;;;5.05;2.13;;;2.00;99.90;;;;;;12502224;28;20068;-36
2024/01/21 09:33:41;;;;;;;4.75;2.13;;;2.20;99.90;;;;;;12512275;28;20045;-36
2024/01/21 09:39:43;;;;;;;4.32;2.13;;;2.30;99.90;;;;;;12493592;28;20418;-36
2024/01/21 09:45:45;;;;;;;5.00;2.53;;;2.30;99.90;;;;;;12489807;28;20484;-36
2024/01/21 09:51:49;;;;;;;5.80;2.70;;;2.40;99.90;;;;;;12496537;28;20080;-35
2024/01/21 09:57:53;;;;;;;6.43;3.10;;;2.40;99.90;;;;;;12495758;28;20560;-36
2024/01/21 10:03:55;;;;;;;3.83;1.90;;;2.30;99.90;;;;;;12481213;28;20049;-36
2024/01/21 10:09:57;;;;;;;7.18;2.15;;;2.40;99.90;;;;;;12508185;28;20104;-35
2024/01/21 10:16:00;;;;;;;5.65;2.30;;;2.60;99.90;;;;;;12501961;28;20045;-35
2024/01/21 10:22:10;;;;;;;4.82;2.15;;;2.60;99.90;;;;;;12531135;28;20061;-36
2024/01/21 10:28:13;;;;;;;6.72;2.30;;;2.70;99.90;;;;;;12547911;28;20055;-35
2024/01/21 10:34:15;;;;;;;4.00;1.80;;;2.80;99.90;;;;;;12547265;28;20040;-35
2024/01/21 10:40:18;;;;;;;4.82;2.10;;;3.00;99.90;;;;;;12566541;28;20091;-36
2024/01/21 10:46:22;;;;;;;8.05;3.13;;;3.10;99.90;;;;;;12571280;28;20045;-36
2024/01/21 10:52:24;;;;;;;7.63;4.37;;;3.10;99.90;;;;;;12555421;28;20040;-35
2024/01/21 10:58:26;;;;;;;5.18;2.35;;;3.00;99.90;;;;;;12557772;28;20155;-35
2024/01/21 11:04:29;;;;;;;5.65;2.30;;;3.00;99.90;;;;;;12572024;28;20047;-36
2024/01/21 11:10:36;;;;;;;5.55;2.17;;;3.20;99.90;;;;;;12569636;28;20493;-35
2024/01/21 11:16:39;;;;;;;4.03;2.20;;;3.30;99.90;;;;;;12572361;28;20045;-36
2024/01/21 11:22:41;;;;;;;5.32;2.15;;;3.60;99.90;;;;;;12528542;28;20069;-36
2024/01/21 11:28:45;;;;;;;4.80;2.15;;;3.80;99.90;;;;;;12513639;28;20045;-36
2024/01/21 11:34:47;;;;;;;5.00;2.67;;;4.00;99.90;;;;;;12497572;28;20045;-36
2024/01/21 11:41:02;;;;;;;5.70;2.40;;;3.90;99.90;;;;;;12500905;28;20303;-36
2024/01/21 11:47:06;;;;;;;5.53;2.53;;;3.90;99.90;;;;;;12494981;28;20056;-35
2024/01/21 11:53:08;;;;;;;7.78;2.83;;;4.00;99.90;;;;;;12497897;28;20060;-36
2024/01/21 11:59:10;;;;;;;6.55;3.13;;;3.90;99.90;;;;;;12497982;28;20049;-35
2024/01/21 12:05:18;;;;;;;4.80;2.47;;;3.80;99.90;;;;;;12509455;28;20063;-35
2024/01/21 12:11:20;;;;;;;5.97;2.78;;;3.90;99.90;;;;;;12510140;28;20147;-36
2024/01/21 13:04:13;;;;;;;5.57;3.08;;;4.10;99.90;;;;;;12499157;22;20094;-35
2024/01/21 13:10:15;;;;;;;5.82;2.97;;;4.20;99.90;;;;;;12587821;28;20385;-36
2024/01/21 13:16:17;;;;;;;8.52;3.90;;;4.00;99.90;;;;;;12578921;28;20532;-35
2024/01/21 13:22:19;;;;;;;7.78;3.97;;;4.10;99.90;;;;;;12547640;28;20048;-36
2024/01/21 13:34:23;;;;;;;8.00;5.50;;;4.10;99.90;;;;;;12568244;28;20056;-36
2024/01/21 13:40:27;;;;;;;10.00;8.07;;;4.10;99.90;;;;;;12567204;28;20080;-35
2024/01/21 13:46:29;;;;;;;11.73;10.73;;;4.10;99.90;;;;;;12572643;28;20060;-36
2024/01/21 13:52:30;;;;;;;13.63;12.40;;;4.10;99.90;;;;;;12561869;28;20048;-36
2024/01/21 13:58:32;;;;;;;13.23;12.02;;;4.10;99.90;;;;;;12573033;28;20052;-35
2024/01/21 14:04:35;;;;;;;13.18;12.07;;;4.00;99.90;;;;;;12564178;28;20048;-35
2024/01/21 14:10:36;;;;;;;13.75;12.35;;;4.00;99.90;;;;;;12620097;28;20055;-35
2024/01/21 14:16:38;;;;;;;12.27;11.18;;;3.90;99.90;;;;;;12622243;28;20048;-34
2024/01/21 14:22:42;;;;;;;11.55;10.52;;;3.80;99.90;;;;;;12597645;28;21344;-35
2024/01/21 14:28:46;;;;;;;11.95;10.85;;;3.90;99.90;;;;;;12633656;28;20414;-35
2024/01/21 14:34:48;;;;;;;12.57;11.48;;;3.80;99.90;;;;;;12624320;28;20075;-36
2024/01/21 14:40:50;;;;;;;11.57;10.25;;;3.80;99.90;;;;;;12630594;28;20052;-35
2024/01/21 14:46:52;;;;;;;14.45;12.95;;;3.80;99.90;;;;;;12627904;28;20048;-35
2024/01/21 14:52:54;;;;;;;12.48;11.32;;;3.80;99.90;;;;;;12627399;28;20071;-35
2024/01/21 14:58:58;;;;;;;11.68;10.68;;;3.80;99.90;;;;;;12628741;28;20120;-35
2024/01/21 15:04:59;;;;;;;12.60;11.30;;;3.80;99.90;;;;;;12610703;28;20076;-35
2024/01/21 15:11:02;;;;;;;12.93;11.80;;;3.80;99.90;;;;;;12626483;28;20052;-35
2024/01/21 15:17:04;;;;;;;12.25;11.25;;;3.80;99.90;;;;;;12635382;28;20059;-35
2024/01/21 15:23:06;;;;;;;13.07;11.77;;;3.90;99.90;;;;;;12620193;28;20056;-35
2024/01/21 15:29:09;;;;;;;12.65;11.55;;;3.80;99.90;;;;;;12620566;28;20052;-35
2024/01/21 15:35:11;;;;;;;11.98;10.82;;;3.80;99.90;;;;;;12626407;28;20052;-36
2024/01/21 15:41:13;;;;;;;11.63;10.63;;;3.80;99.90;;;;;;12615797;28;20143;-36
2024/01/21 15:47:15;;;;;;;14.35;12.90;;;3.90;99.90;;;;;;12620050;28;20468;-35
2024/01/21 15:53:17;;;;;;;12.90;11.77;;;3.80;99.90;;;;;;12611862;28;20135;-35
2024/01/21 15:59:19;;;;;;;13.18;12.07;;;3.70;99.90;;;;;;12617325;28;20419;-35
2024/01/21 16:05:20;;;;;;;13.75;12.52;;;3.70;99.90;;;;;;12616022;28;20079;-35
2024/01/21 16:11:23;;;;;;;14.50;12.60;;;3.80;99.90;;;;;;12623012;28;20112;-35
2024/01/21 16:17:25;;;;;;;12.95;11.77;;;3.70;99.90;;;;;;12630066;28;20052;-34
2024/01/21 16:23:27;;;;;;;13.07;11.80;;;3.80;99.90;;;;;;12635595;28;20506;-36
2024/01/21 16:29:30;;;;;;;14.55;13.15;;;3.70;99.90;;;;;;12636854;28;20091;-35
2024/01/21 16:35:32;;;;;;;13.57;12.35;;;3.70;99.90;;;;;;12632623;28;20052;-35
2024/01/21 16:41:35;;;;;;;12.88;11.57;;;3.80;99.90;;;;;;12638493;28;20082;-35
2024/01/21 16:47:37;;;;;;;13.60;12.52;;;3.90;99.90;;;;;;12632350;28;20048;-35
2024/01/21 16:53:39;;;;;;;12.55;11.55;;;4.00;99.90;;;;;;12615798;28;20078;-35
2024/01/21 16:59:42;;;;;;;15.70;12.90;;;4.10;99.90;;;;;;12628917;28;20059;-34
2024/01/21 17:05:44;;;;;;;13.95;12.82;;;4.10;99.90;;;;;;12626751;28;20192;-36
2024/01/21 17:11:55;;;;;;;15.10;13.90;;;4.00;99.90;;;;;;12627128;28;20055;-35
2024/01/21 17:18:01;;;;;;;14.18;12.82;;;4.10;99.90;;;;;;12630108;28;20092;-35
2024/01/21 17:24:04;;;;;;;15.48;14.10;;;4.10;99.90;;;;;;12609765;28;20201;-36
2024/01/21 17:30:06;;;;;;;13.95;12.65;;;4.10;99.90;;;;;;12599298;28;20063;-36
2024/01/21 17:36:12;;;;;;;15.38;14.18;;;4.10;99.90;;;;;;12589087;28;20060;-36
2024/01/21 17:42:14;;;;;;;16.25;14.95;;;4.20;99.90;;;;;;12616346;28;20170;-35
2024/01/21 17:48:16;;;;;;;14.27;13.13;;;4.20;99.90;;;;;;12626110;28;20396;-35
2024/01/21 17:54:18;;;;;;;17.27;15.85;;;4.30;99.90;;;;;;12591529;22;20060;-81
2024/01/21 18:00:20;;;;;;;15.45;14.32;;;4.30;99.90;;;;;;12507781;28;20053;-82
2024/01/21 18:06:26;;;;;;;17.00;15.77;;;4.50;99.90;;;;;;12531495;28;20053;-78
2024/01/21 18:12:28;;;;;;;17.35;15.85;;;4.40;99.90;;;;;;12521826;28;20207;-80
2024/01/21 18:18:30;;;;;;;16.58;14.95;;;4.50;99.90;;;;;;12521929;28;20045;-79
2024/01/21 18:24:33;;;;;;;18.50;16.92;;;4.50;99.90;;;;;;12523289;28;20061;-79
2024/01/21 18:30:35;;;;;;;19.95;18.45;;;4.40;99.90;;;;;;12517835;28;20056;-78
2024/01/21 18:36:39;;;;;;;20.17;18.73;;;4.30;99.90;;;;;;12507570;28;22470;-79
2024/01/21 18:42:41;;;;;;;20.13;18.63;;;4.30;99.90;;;;;;12540112;28;20053;-82
2024/01/21 18:48:44;;;;;;;20.38;18.88;;;4.30;99.90;;;;;;12539340;28;20435;-79
2024/01/21 18:54:48;;;;;;;18.92;17.40;;;4.40;99.90;;;;;;12579346;28;20044;-79
2024/01/21 19:00:50;;;;;;;19.73;18.20;;;4.50;99.90;;;;;;12609917;28;20056;-78
2024/01/21 19:06:53;;;;;;;20.08;18.60;;;4.50;99.90;;;;;;12577966;28;20052;-79
2024/01/21 19:12:55;;;;;;;21.83;20.23;;;4.50;99.90;;;;;;12558689;28;20147;-78
2024/01/21 19:18:57;;;;;;;22.88;20.77;;;4.50;99.90;;;;;;12553630;28;20057;-79
2024/01/21 19:25:07;;;;;;;23.20;21.30;;;4.40;99.90;;;;;;12597850;28;20079;-83
2024/01/21 19:31:09;;;;;;;22.52;20.50;;;4.40;99.90;;;;;;12585686;28;20087;-77
2024/01/21 19:37:11;;;;;;;21.85;20.05;;;4.30;99.90;;;;;;12566250;28;20045;-78
2024/01/21 19:43:14;;;;;;;22.73;20.50;;;4.40;99.90;;;;;;12579560;28;20464;-80
2024/01/21 19:49:16;;;;;;;23.10;21.30;;;4.40;99.90;;;;;;12576250;28;20066;-79
2024/01/21 19:55:19;;;;;;;23.15;21.50;;;4.40;99.90;;;;;;12594125;28;20502;-79
2024/01/21 20:01:21;;;;;;;22.50;20.90;;;4.30;99.90;;;;;;12599688;28;20062;-80
2024/01/21 20:07:23;;;;;;;20.73;19.00;;;4.30;99.90;;;;;;12593501;28;20072;-79
2024/01/21 20:13:26;;;;;;;21.60;19.98;;;4.40;99.90;;;;;;12577488;28;20056;-80
2024/01/21 20:19:28;;;;;;;24.45;22.70;;;4.50;99.90;;;;;;12606314;28;20202;-79
2024/01/21 20:25:30;;;;;;;24.85;22.83;;;4.50;99.90;;;;;;12581950;28;20063;-82
2024/01/21 20:31:32;;;;;;;24.23;22.17;;;4.50;99.90;;;;;;12585968;28;20053;-78
2024/01/21 20:37:34;;;;;;;24.73;22.67;;;4.50;99.90;;;;;;12582780;28;20059;-85
2024/01/21 20:43:37;;;;;;;24.92;23.15;;;4.50;99.90;;;;;;12592194;28;20064;-85
2024/01/21 20:49:41;;;;;;;25.52;23.85;;;4.50;99.90;;;;;;12556841;28;20568;-83
2024/01/21 20:55:44;;;;;;;26.30;24.60;;;4.50;99.90;;;;;;12565036;28;20067;-86
2024/01/21 21:01:47;;;;;;;27.80;25.80;;;4.70;99.90;;;;;;12574311;28;20056;-86
2024/01/21 21:07:50;;;;;;;29.42;27.33;;;4.60;99.90;;;;;;12557297;28;20345;-86
2024/01/21 21:13:52;;;;;;;27.27;25.23;;;4.40;99.90;;;;;;12568658;28;20049;-87
2024/01/21 21:19:54;;;;;;;29.38;27.33;;;4.20;99.90;;;;;;12563973;28;20048;-85
2024/01/21 21:25:56;;;;;;;28.27;26.20;;;4.20;99.90;;;;;;12570851;28;20390;-86
2024/01/21 21:31:58;;;;;;;29.98;27.77;;;4.40;99.90;;;;;;12575273;28;20482;-86
2024/01/21 21:38:00;;;;;;;31.48;29.35;;;4.50;99.90;;;;;;12560936;28;20183;-86
2024/01/21 21:44:03;;;;;;;31.33;29.20;;;4.50;99.90;;;;;;12562083;28;20276;-83
2024/01/21 21:50:05;;;;;;;32.40;29.95;;;4.40;99.90;;;;;;12579923;28;20064;-83
2024/01/21 21:56:07;;;;;;;33.58;31.38;;;4.40;99.90;;;;;;12581289;28;20053;-84
2024/01/21 22:02:09;;;;;;;30.98;29.02;;;4.50;99.90;;;;;;12575887;28;20353;-83
2024/01/21 22:08:12;;;;;;;31.33;29.17;;;4.60;99.90;;;;;;12571090;28;20488;-83
2024/01/21 22:14:15;;;;;;;37.40;34.90;;;4.90;99.90;;;;;;12571103;28;20114;-83
2024/01/21 22:20:17;;;;;;;37.10;34.83;;;4.90;99.90;;;;;;12583182;28;20174;-83
2024/01/21 22:26:20;;;;;;;44.63;41.97;;;4.80;99.90;;;;;;12574897;28;20492;-83
2024/01/21 22:32:22;;;;;;;42.65;39.88;;;4.90;99.90;;;;;;12591043;28;20045;-82
2024/01/21 22:38:24;;;;;;;41.17;38.50;;;4.90;99.90;;;;;;12600130;28;20560;-87
2024/01/21 22:44:26;;;;;;;39.10;36.67;;;5.00;99.90;;;;;;12560601;28;20053;-81
2024/01/21 22:50:28;;;;;;;40.17;36.95;;;4.90;99.90;;;;;;12581113;28;20428;-82
2024/01/21 22:56:30;;;;;;;39.80;37.20;;;4.80;99.90;;;;;;12608957;28;20045;-85
2024/01/21 23:02:32;;;;;;;41.40;38.92;;;4.90;99.90;;;;;;12612961;28;20075;-83
2024/01/21 23:08:35;;;;;;;41.60;39.17;;;4.80;99.90;;;;;;12614938;28;20057;-83
2024/01/21 23:14:37;;;;;;;41.53;39.22;;;5.00;99.90;;;;;;12614154;28;20048;-83
2024/01/21 23:20:40;;;;;;;44.08;41.58;;;5.10;99.90;;;;;;12638434;28;20059;-82
2024/01/21 23:26:42;;;;;;;45.92;43.17;;;5.20;99.90;;;;;;12636979;28;20048;-86
2024/01/21 23:32:44;;;;;;;45.22;42.35;;;5.20;99.90;;;;;;12605207;28;20040;-83
2024/01/21 23:38:46;;;;;;;42.72;40.38;;;5.30;99.90;;;;;;12600587;28;20064;-83
2024/01/21 23:44:49;;;;;;;47.55;44.97;;;5.30;99.90;;;;;;12619000;28;20048;-84
2024/01/21 23:50:51;;;;;;;48.35;45.42;;;5.50;99.90;;;;;;12623521;28;20059;-83
2024/01/21 23:56:53;;;;;;;53.30;49.97;;;5.60;99.90;;;;;;12603274;28;20068;-84
